createdAt,value
2022-10-12T00:00:06.597Z,10.50
2022-10-12T00:02:34.867Z,10.50
2022-10-12T00:05:02.986Z,10.50
2022-10-12T00:07:32.717Z,10.50
2022-10-12T00:10:00.952Z,10.40
2022-10-12T00:12:29.236Z,10.30
2022-10-12T00:14:57.844Z,10.30
2022-10-12T00:17:26.012Z,10.20
2022-10-12T00:20:16.249Z,10.20
2022-10-12T00:22:46.390Z,10.10
2022-10-12T00:25:14.524Z,10.20
2022-10-12T00:27:42.711Z,10.30
2022-10-12T00:30:12.491Z,10.00
2022-10-12T00:32:42.068Z,9.90
2022-10-12T00:35:11.719Z,9.90
2022-10-12T00:37:40.264Z,9.80
2022-10-12T00:40:12.045Z,9.80
2022-10-12T00:42:40.184Z,10.00
2022-10-12T00:45:10.656Z,10.00
2022-10-12T00:47:52.289Z,9.80
2022-10-12T00:50:25.648Z,9.70
2022-10-12T00:52:59.539Z,9.80
2022-10-12T00:55:35.733Z,9.80
2022-10-12T00:58:08.228Z,9.80
2022-10-12T01:00:36.715Z,9.80
2022-10-12T01:03:06.107Z,9.70
2022-10-12T01:05:35.191Z,9.60
2022-10-12T01:08:04.438Z,9.70
2022-10-12T01:10:35.856Z,9.70
2022-10-12T01:13:04.705Z,9.70
2022-10-12T01:15:41.901Z,9.60
2022-10-12T01:18:18.397Z,9.60
2022-10-12T01:21:00.083Z,9.60
2022-10-12T01:23:49.843Z,9.50
2022-10-12T01:26:49.366Z,9.50
2022-10-12T01:29:36.273Z,9.60
2022-10-12T01:32:11.227Z,9.50
2022-10-12T01:34:46.252Z,9.60
2022-10-12T01:37:23.675Z,9.50
2022-10-12T01:39:54.839Z,9.50
2022-10-12T01:42:27.343Z,9.40
2022-10-12T01:45:03.469Z,9.50
2022-10-12T01:47:34.181Z,9.50
2022-10-12T01:50:03.655Z,9.50
2022-10-12T01:52:33.135Z,9.50
2022-10-12T01:55:11.946Z,9.60
2022-10-12T01:57:51.827Z,9.40
2022-10-12T02:00:22.115Z,9.30
2022-10-12T02:02:59.774Z,9.40
2022-10-12T02:05:38.566Z,9.30
2022-10-12T02:08:16.630Z,9.40
2022-10-12T02:10:49.064Z,9.30
2022-10-12T02:13:19.891Z,9.30
2022-10-12T02:15:50.160Z,9.30
2022-10-12T02:18:22.633Z,9.30
2022-10-12T02:20:56.154Z,9.30
2022-10-12T02:23:26.152Z,9.30
2022-10-12T02:25:56.202Z,9.40
2022-10-12T02:28:27.754Z,9.40
2022-10-12T02:31:03.897Z,9.30
2022-10-12T02:33:39.122Z,9.20
2022-10-12T02:36:12.865Z,9.20
2022-10-12T02:38:45.080Z,9.30
2022-10-12T02:41:18.202Z,9.40
2022-10-12T02:43:50.234Z,9.20
2022-10-12T02:46:20.020Z,9.10
2022-10-12T02:48:51.016Z,9.20
2022-10-12T02:51:20.602Z,9.10
2022-10-12T02:53:49.046Z,9.10
2022-10-12T02:56:17.429Z,9.00
2022-10-12T02:58:46.995Z,9.10
2022-10-12T03:01:16.990Z,9.10
2022-10-12T03:03:45.475Z,9.10
2022-10-12T03:06:15.478Z,9.10
2022-10-12T03:08:43.558Z,9.00
2022-10-12T03:11:14.361Z,9.10
2022-10-12T03:13:45.015Z,9.10
2022-10-12T03:16:13.701Z,9.10
2022-10-12T03:18:42.461Z,9.10
2022-10-12T03:21:11.047Z,9.00
2022-10-12T03:23:40.977Z,8.90
2022-10-12T03:26:09.250Z,8.90
2022-10-12T03:28:37.889Z,8.80
2022-10-12T03:31:06.427Z,8.80
2022-10-12T03:33:34.587Z,8.80
2022-10-12T03:36:03.452Z,8.90
2022-10-12T03:38:31.770Z,8.80
2022-10-12T03:41:06.604Z,8.80
2022-10-12T03:43:36.830Z,8.80
2022-10-12T03:46:05.299Z,8.80
2022-10-12T03:48:33.353Z,8.80
2022-10-12T03:51:01.395Z,8.80
2022-10-12T03:53:30.520Z,8.70
2022-10-12T03:56:01.607Z,8.70
2022-10-12T03:58:32.267Z,8.80
2022-10-12T04:01:00.315Z,8.70
2022-10-12T04:03:28.453Z,8.70
2022-10-12T04:05:57.692Z,8.80
2022-10-12T04:08:28.552Z,8.70
2022-10-12T04:10:57.686Z,8.60
2022-10-12T04:13:28.954Z,8.70
2022-10-12T04:16:03.502Z,8.60
2022-10-12T04:18:33.803Z,8.70
2022-10-12T04:21:03.306Z,8.70
2022-10-12T04:23:32.066Z,8.70
2022-10-12T04:26:00.140Z,8.60
2022-10-12T04:28:32.169Z,8.60
2022-10-12T04:31:04.709Z,8.60
2022-10-12T04:33:33.688Z,8.60
2022-10-12T04:36:01.758Z,8.60
2022-10-12T04:38:30.835Z,8.50
2022-10-12T04:40:58.778Z,8.50
2022-10-12T04:43:27.454Z,8.50
2022-10-12T04:45:58.773Z,8.50
2022-10-12T04:48:28.179Z,8.60
2022-10-12T04:50:56.912Z,8.60
2022-10-12T04:53:24.972Z,8.50
2022-10-12T04:55:53.179Z,8.50
2022-10-12T04:58:22.910Z,8.40
2022-10-12T05:00:51.379Z,8.40
2022-10-12T05:03:21.683Z,8.40
2022-10-12T05:05:49.992Z,8.40
2022-10-12T05:08:20.867Z,8.30
2022-10-12T05:10:49.688Z,8.30
2022-10-12T05:13:19.357Z,8.20
2022-10-12T05:15:47.500Z,8.20
2022-10-12T05:18:16.629Z,8.30
2022-10-12T05:20:46.869Z,8.40
2022-10-12T05:23:15.103Z,8.30
2022-10-12T05:25:43.259Z,8.20
2022-10-12T05:28:11.394Z,8.20
2022-10-12T05:30:40.615Z,8.10
2022-10-12T05:33:10.502Z,8.00
2022-10-12T05:35:40.252Z,8.10
2022-10-12T05:38:12.842Z,8.20
2022-10-12T05:40:41.010Z,8.20
2022-10-12T05:43:09.272Z,8.10
2022-10-12T05:45:37.289Z,8.10
2022-10-12T05:48:05.821Z,8.10
2022-10-12T05:50:33.943Z,8.20
2022-10-12T05:53:02.068Z,8.10
2022-10-12T05:55:31.993Z,8.10
2022-10-12T05:58:00.039Z,8.10
2022-10-12T06:00:28.418Z,8.00
2022-10-12T06:02:56.549Z,8.10
2022-10-12T06:05:25.137Z,8.10
2022-10-12T06:07:53.213Z,8.10
2022-10-12T06:10:24.281Z,8.20
2022-10-12T06:13:00.078Z,8.10
2022-10-12T06:15:51.937Z,8.10
2022-10-12T06:18:34.890Z,8.20
2022-10-12T06:21:31.935Z,8.20
2022-10-12T06:24:00.485Z,8.30
2022-10-12T06:26:37.233Z,8.30
2022-10-12T06:29:07.598Z,8.30
2022-10-12T06:31:39.050Z,8.40
2022-10-12T06:34:08.567Z,8.50
2022-10-12T06:36:37.892Z,8.40
2022-10-12T06:39:06.055Z,8.40
2022-10-12T06:41:34.358Z,8.50
2022-10-12T06:44:02.524Z,8.60
2022-10-12T06:46:33.773Z,8.70
2022-10-12T06:49:02.916Z,8.80
2022-10-12T06:51:31.776Z,9.00
2022-10-12T06:54:07.163Z,9.20
2022-10-12T06:56:38.179Z,9.30
2022-10-12T06:59:06.520Z,9.30
2022-10-12T07:01:39.118Z,9.40
2022-10-12T07:04:09.539Z,9.50
2022-10-12T07:06:37.987Z,9.60
2022-10-12T07:09:06.226Z,9.60
2022-10-12T07:11:39.349Z,9.80
2022-10-12T07:14:07.590Z,9.90
2022-10-12T07:16:37.546Z,10.10
2022-10-12T07:22:36.303Z,10.20
2022-10-12T07:25:04.758Z,10.40
2022-10-12T07:27:35.586Z,10.60
2022-10-12T07:30:34.115Z,10.70
2022-10-12T07:33:04.042Z,10.90
2022-10-12T07:35:32.370Z,11.00
2022-10-12T07:38:02.633Z,11.00
2022-10-12T07:40:31.037Z,11.10
2022-10-12T07:43:15.291Z,11.30
2022-10-12T07:45:44.575Z,11.40
2022-10-12T07:48:14.252Z,11.70
2022-10-12T07:50:42.269Z,11.80
2022-10-12T07:53:10.354Z,12.00
2022-10-12T07:55:48.022Z,12.10
2022-10-12T07:58:16.803Z,12.20
2022-10-12T08:00:45.100Z,12.40
2022-10-12T08:03:17.993Z,12.40
2022-10-12T08:05:46.639Z,12.60
2022-10-12T08:08:15.129Z,12.70
2022-10-12T08:10:44.138Z,12.70
2022-10-12T08:13:12.478Z,12.80
2022-10-12T08:15:41.304Z,12.90
2022-10-12T08:18:11.211Z,12.90
2022-10-12T08:20:52.503Z,13.00
2022-10-12T08:23:21.963Z,13.10
2022-10-12T08:26:27.365Z,13.20
2022-10-12T08:29:03.301Z,13.40
2022-10-12T08:31:33.256Z,13.50
2022-10-12T08:34:08.254Z,13.60
2022-10-12T08:37:04.527Z,13.80
2022-10-12T08:40:04.258Z,14.00
2022-10-12T08:43:35.972Z,14.00
2022-10-12T08:46:07.191Z,14.20
2022-10-12T08:49:01.939Z,14.40
2022-10-12T08:52:30.347Z,14.50
2022-10-12T08:55:07.102Z,14.80
2022-10-12T08:57:38.086Z,14.90
2022-10-12T09:00:11.086Z,15.00
2022-10-12T09:02:51.794Z,15.10
2022-10-12T09:05:29.088Z,15.30
2022-10-12T09:08:04.082Z,15.50
2022-10-12T09:10:44.585Z,15.60
2022-10-12T09:13:25.699Z,15.70
2022-10-12T09:16:01.229Z,15.80
2022-10-12T09:18:40.788Z,16.00
2022-10-12T09:21:18.448Z,16.00
2022-10-12T09:23:54.880Z,15.90
2022-10-12T09:26:47.163Z,16.00
2022-10-12T09:29:25.048Z,15.80
2022-10-12T09:32:37.064Z,15.90
2022-10-12T09:35:08.124Z,16.10
2022-10-12T09:37:40.782Z,16.10
2022-10-12T09:40:25.224Z,16.20
2022-10-12T09:42:56.275Z,16.20
2022-10-12T09:45:28.029Z,16.30
2022-10-12T09:48:17.098Z,16.30
2022-10-12T09:50:49.318Z,16.20
2022-10-12T09:53:25.823Z,16.30
2022-10-12T09:56:02.445Z,16.50
2022-10-12T09:58:36.931Z,16.60
2022-10-12T10:01:30.312Z,16.70
2022-10-12T10:04:24.769Z,16.80
2022-10-12T10:06:56.339Z,17.00
2022-10-12T10:09:32.880Z,17.10
2022-10-12T10:12:22.085Z,16.90
2022-10-12T10:14:54.002Z,16.90
2022-10-12T10:17:27.095Z,16.90
2022-10-12T10:23:32.905Z,17.20
2022-10-12T10:26:06.231Z,17.30
2022-10-12T10:28:38.332Z,17.40
2022-10-12T10:31:22.073Z,17.40
2022-10-12T10:34:13.651Z,17.50
2022-10-12T10:36:46.696Z,17.70
2022-10-12T10:39:20.198Z,17.70
2022-10-12T10:44:52.203Z,17.60
2022-10-12T10:47:47.550Z,17.60
2022-10-12T10:50:26.999Z,17.70
2022-10-12T10:52:58.599Z,17.80
2022-10-12T10:55:37.295Z,17.70
2022-10-12T10:58:08.076Z,17.70
2022-10-12T11:00:42.563Z,17.70
2022-10-12T11:05:59.152Z,17.80
2022-10-12T11:08:29.942Z,17.80
2022-10-12T11:11:01.703Z,17.80
2022-10-12T11:13:35.745Z,17.80
2022-10-12T11:16:10.687Z,17.70
2022-10-12T11:18:46.262Z,17.60
2022-10-12T11:21:19.438Z,17.50
2022-10-12T11:23:51.720Z,17.60
2022-10-12T11:26:37.097Z,17.70
2022-10-12T11:29:07.161Z,17.70
2022-10-12T11:31:39.832Z,17.60
2022-10-12T11:34:14.450Z,17.60
2022-10-12T11:37:14.315Z,17.50
2022-10-12T11:39:39.808Z,17.30
2022-10-12T11:42:28.136Z,17.40
2022-10-12T11:44:56.599Z,17.40
2022-10-12T11:47:32.340Z,17.50
2022-10-12T11:50:06.279Z,17.60
2022-10-12T11:52:39.347Z,17.50
2022-10-12T11:55:27.480Z,17.50
2022-10-12T11:57:59.247Z,17.50
2022-10-12T12:00:32.907Z,17.40
2022-10-12T12:03:16.564Z,17.30
2022-10-12T12:05:46.335Z,17.40
2022-10-12T12:08:47.222Z,17.50
2022-10-12T12:11:26.492Z,17.40
2022-10-12T12:14:37.412Z,17.50
2022-10-12T12:17:25.887Z,17.50
2022-10-12T12:20:06.124Z,17.40
2022-10-12T12:22:54.216Z,17.50
2022-10-12T12:25:33.126Z,17.50
2022-10-12T12:28:07.300Z,17.40
2022-10-12T12:30:38.767Z,17.30
2022-10-12T12:33:27.734Z,17.20
2022-10-12T12:35:58.185Z,17.20
2022-10-12T12:38:33.030Z,17.10
2022-10-12T12:41:06.502Z,17.10
2022-10-12T12:43:52.757Z,17.10
2022-10-12T12:46:21.920Z,17.00
2022-10-12T12:49:01.108Z,17.00
2022-10-12T12:51:39.070Z,16.90
2022-10-12T12:54:16.726Z,17.00
2022-10-12T12:57:11.501Z,16.90
2022-10-12T13:00:04.463Z,16.90
2022-10-12T13:02:53.897Z,16.90
2022-10-12T13:06:08.713Z,16.80
2022-10-12T13:08:51.447Z,16.70
2022-10-12T13:11:47.646Z,16.70
2022-10-12T13:14:32.227Z,16.70
2022-10-12T13:20:00.402Z,16.60
2022-10-12T13:22:32.333Z,16.60
2022-10-12T13:25:03.812Z,16.50
2022-10-12T13:27:41.141Z,16.50
2022-10-12T13:30:29.558Z,16.50
2022-10-12T13:33:02.691Z,16.40
2022-10-12T13:35:35.360Z,16.50
2022-10-12T13:38:06.188Z,16.40
2022-10-12T13:40:39.044Z,16.50
2022-10-12T13:43:36.954Z,16.50
2022-10-12T13:46:06.203Z,16.40
2022-10-12T13:48:58.085Z,16.40
2022-10-12T13:51:26.355Z,16.30
2022-10-12T13:53:55.132Z,16.20
2022-10-12T13:56:25.995Z,16.20
2022-10-12T13:58:59.298Z,16.20
2022-10-12T14:01:27.715Z,16.10
2022-10-12T14:04:04.471Z,16.10
2022-10-12T14:06:38.230Z,16.10
2022-10-12T14:09:10.640Z,16.10
2022-10-12T14:11:39.373Z,16.10
2022-10-12T14:14:14.980Z,16.10
2022-10-12T14:16:43.642Z,16.10
2022-10-12T14:19:32.096Z,16.10
2022-10-12T14:22:01.598Z,16.10
2022-10-12T14:24:30.462Z,16.10
2022-10-12T14:27:00.922Z,16.10
2022-10-12T14:29:36.104Z,16.10
2022-10-12T14:32:06.715Z,16.00
2022-10-12T14:34:46.547Z,16.00
2022-10-12T14:37:38.804Z,16.00
2022-10-12T14:40:27.857Z,16.00
2022-10-12T14:42:59.903Z,16.00
2022-10-12T14:45:29.275Z,16.00
2022-10-12T14:47:57.595Z,15.90
2022-10-12T14:50:25.854Z,15.90
2022-10-12T14:52:56.298Z,15.90
2022-10-12T14:55:28.595Z,15.90
2022-10-12T14:57:56.738Z,15.90
2022-10-12T15:00:26.403Z,15.90
2022-10-12T15:02:56.430Z,15.90
2022-10-12T15:05:28.461Z,15.90
2022-10-12T15:07:56.775Z,15.80
2022-10-12T15:10:26.499Z,15.80
2022-10-12T15:12:55.272Z,15.80
2022-10-12T15:15:32.210Z,15.70
2022-10-12T15:18:02.198Z,15.70
2022-10-12T15:20:31.919Z,15.70
2022-10-12T15:23:00.644Z,15.70
2022-10-12T15:25:38.817Z,15.70
2022-10-12T15:28:07.323Z,15.70
2022-10-12T15:30:43.404Z,15.60
2022-10-12T15:33:26.117Z,15.60
2022-10-12T15:35:54.220Z,15.60
2022-10-12T15:38:22.543Z,15.60
2022-10-12T15:40:52.799Z,15.60
2022-10-12T15:43:20.900Z,15.60
2022-10-12T15:45:49.788Z,15.50
2022-10-12T15:48:17.948Z,15.50
2022-10-12T15:50:50.120Z,15.50
2022-10-12T15:53:20.453Z,15.50
2022-10-12T15:55:49.063Z,15.50
2022-10-12T15:58:17.495Z,15.50
2022-10-12T16:00:45.664Z,15.40
2022-10-12T16:03:24.506Z,15.40
2022-10-12T16:05:55.357Z,15.40
2022-10-12T16:08:23.438Z,15.40
2022-10-12T16:10:52.616Z,15.40
2022-10-12T16:13:21.693Z,15.30
2022-10-12T16:15:50.038Z,15.30
2022-10-12T16:18:18.020Z,15.30
2022-10-12T16:20:51.122Z,15.30
2022-10-12T16:23:25.848Z,15.30
2022-10-12T16:25:54.438Z,15.20
2022-10-12T16:28:24.549Z,15.20
2022-10-12T16:30:53.541Z,15.20
2022-10-12T16:33:21.904Z,15.10
2022-10-12T16:35:51.667Z,15.10
2022-10-12T16:38:22.026Z,15.10
2022-10-12T16:40:54.222Z,15.10
2022-10-12T16:43:22.118Z,15.00
2022-10-12T16:45:57.247Z,15.00
2022-10-12T16:48:29.729Z,15.00
2022-10-12T16:50:58.277Z,15.10
2022-10-12T16:53:27.347Z,15.00
2022-10-12T16:55:57.467Z,15.00
2022-10-12T16:58:25.819Z,15.00
2022-10-12T17:00:54.460Z,14.90
2022-10-12T17:03:24.249Z,14.90
2022-10-12T17:05:59.987Z,14.90
2022-10-12T17:08:28.508Z,14.90
2022-10-12T17:10:58.031Z,14.90
2022-10-12T17:13:26.872Z,14.90
2022-10-12T17:16:20.439Z,14.90
2022-10-12T17:18:48.612Z,14.90
2022-10-12T17:21:42.099Z,14.80
2022-10-12T17:24:11.291Z,14.80
2022-10-12T17:26:41.271Z,14.80
2022-10-12T17:29:11.781Z,14.80
2022-10-12T17:31:40.279Z,14.80
2022-10-12T17:34:09.444Z,14.80
2022-10-12T17:36:37.326Z,14.70
2022-10-12T17:39:05.813Z,14.60
2022-10-12T17:41:33.973Z,14.70
2022-10-12T17:44:03.538Z,14.70
2022-10-12T17:46:31.959Z,14.60
2022-10-12T17:49:00.185Z,14.60
2022-10-12T17:51:29.079Z,14.60
2022-10-12T17:53:57.113Z,14.60
2022-10-12T17:56:25.653Z,14.60
2022-10-12T17:58:58.224Z,14.60
2022-10-12T18:01:29.965Z,14.50
2022-10-12T18:04:00.799Z,14.50
2022-10-12T18:06:30.060Z,14.40
2022-10-12T18:08:59.306Z,14.40
2022-10-12T18:11:27.610Z,14.40
2022-10-12T18:13:57.212Z,14.50
2022-10-12T18:16:35.470Z,14.50
2022-10-12T18:19:07.094Z,14.40
2022-10-12T18:21:35.350Z,14.40
2022-10-12T18:24:06.832Z,14.30
2022-10-12T18:26:36.035Z,14.30
2022-10-12T18:29:05.175Z,14.30
2022-10-12T18:31:35.368Z,14.20
2022-10-12T18:34:05.899Z,14.20
2022-10-12T18:36:34.143Z,14.10
2022-10-12T18:39:03.267Z,14.10
2022-10-12T18:41:31.878Z,14.10
2022-10-12T18:44:02.219Z,14.20
2022-10-12T18:46:33.947Z,14.20
2022-10-12T18:49:06.884Z,14.10
2022-10-12T18:51:38.789Z,14.00
2022-10-12T18:54:08.900Z,14.00
2022-10-12T18:56:37.880Z,14.00
2022-10-12T18:59:07.264Z,14.00
2022-10-12T19:01:36.039Z,14.00
2022-10-12T19:04:06.869Z,14.00
2022-10-12T19:06:37.797Z,14.00
2022-10-12T19:09:06.702Z,13.90
2022-10-12T19:11:36.789Z,13.90
2022-10-12T19:14:06.387Z,13.90
2022-10-12T19:16:35.474Z,13.90
2022-10-12T19:19:07.646Z,13.80
2022-10-12T19:21:36.243Z,13.90
2022-10-12T19:24:05.169Z,13.80
2022-10-12T19:26:33.609Z,13.80
2022-10-12T19:29:02.334Z,13.80
2022-10-12T19:31:32.160Z,13.60
2022-10-12T19:34:02.795Z,13.60
2022-10-12T19:36:33.324Z,13.60
2022-10-12T19:39:03.054Z,13.50
2022-10-12T19:41:32.145Z,13.60
2022-10-12T19:44:01.457Z,13.60
2022-10-12T19:46:30.074Z,13.60
2022-10-12T19:49:00.016Z,13.60
2022-10-12T19:51:30.962Z,13.50
2022-10-12T19:54:02.640Z,13.50
2022-10-12T19:56:31.077Z,13.50
2022-10-12T19:58:59.553Z,13.50
2022-10-12T20:01:29.538Z,13.40
2022-10-12T20:03:57.811Z,13.30
2022-10-12T20:06:28.524Z,13.30
2022-10-12T20:08:58.518Z,13.20
2022-10-12T20:11:28.003Z,13.30
2022-10-12T20:13:57.417Z,13.30
2022-10-12T20:16:25.636Z,13.20
2022-10-12T20:18:54.683Z,13.20
2022-10-12T20:21:24.478Z,13.10
2022-10-12T20:23:53.056Z,13.10
2022-10-12T20:26:22.866Z,13.10
2022-10-12T20:28:53.395Z,13.20
2022-10-12T20:31:23.628Z,13.10
2022-10-12T20:33:53.182Z,13.10
2022-10-12T20:36:23.224Z,13.10
2022-10-12T20:38:51.447Z,13.10
2022-10-12T20:41:21.598Z,13.10
2022-10-12T20:43:55.068Z,12.90
2022-10-12T20:46:23.115Z,12.80
2022-10-12T20:48:55.914Z,12.80
2022-10-12T20:51:28.952Z,12.90
2022-10-12T20:53:59.104Z,12.90
2022-10-12T20:56:27.524Z,12.90
2022-10-12T20:58:58.030Z,12.90
2022-10-12T21:01:28.227Z,13.00
2022-10-12T21:03:56.893Z,13.00
2022-10-12T21:06:25.165Z,13.00
2022-10-12T21:08:54.076Z,12.90
2022-10-12T21:11:22.598Z,12.90
2022-10-12T21:13:51.114Z,12.90
2022-10-12T21:16:20.975Z,12.90
2022-10-12T21:18:49.710Z,12.90
2022-10-12T21:21:19.268Z,12.90
2022-10-12T21:23:53.877Z,13.00
2022-10-12T21:26:23.462Z,13.00
2022-10-12T21:28:51.756Z,12.90
2022-10-12T21:31:22.397Z,12.90
2022-10-12T21:33:50.660Z,13.00
2022-10-12T21:36:21.478Z,13.00
2022-10-12T21:38:50.415Z,12.90
2022-10-12T21:41:20.695Z,12.80
2022-10-12T21:43:50.149Z,12.70
2022-10-12T21:46:21.346Z,12.70
2022-10-12T21:48:50.056Z,12.70
2022-10-12T21:51:19.250Z,12.80
2022-10-12T21:53:47.783Z,12.80
2022-10-12T21:56:18.152Z,12.70
2022-10-12T21:58:46.918Z,12.70
2022-10-12T22:01:16.957Z,12.70
2022-10-12T22:03:48.114Z,12.70
2022-10-12T22:06:18.003Z,12.60
2022-10-12T22:08:50.408Z,12.60
2022-10-12T22:11:20.752Z,12.50
2022-10-12T22:13:49.307Z,12.40
2022-10-12T22:16:19.146Z,12.20
2022-10-12T22:18:48.658Z,12.20
2022-10-12T22:21:18.868Z,12.20
2022-10-12T22:23:47.000Z,12.20
2022-10-12T22:26:17.262Z,12.20
2022-10-12T22:28:46.060Z,12.30
2022-10-12T22:31:16.278Z,12.20
2022-10-12T22:33:44.449Z,12.30
2022-10-12T22:36:14.877Z,12.30
2022-10-12T22:38:43.414Z,12.30
2022-10-12T22:41:14.129Z,12.40
2022-10-12T22:43:42.320Z,12.40
2022-10-12T22:46:10.546Z,12.30
2022-10-12T22:48:38.790Z,12.30
2022-10-12T22:51:08.081Z,12.30
2022-10-12T22:53:37.786Z,12.30
2022-10-12T22:56:08.721Z,12.30
2022-10-12T22:58:37.119Z,12.30
2022-10-12T23:01:07.131Z,12.30
2022-10-12T23:03:35.617Z,12.30
2022-10-12T23:06:04.604Z,12.20
2022-10-12T23:08:32.715Z,12.20
2022-10-12T23:11:06.006Z,12.10
2022-10-12T23:13:35.231Z,12.10
2022-10-12T23:16:04.321Z,12.10
2022-10-12T23:18:33.653Z,12.10
2022-10-12T23:21:01.672Z,12.00
2022-10-12T23:23:29.593Z,11.90
2022-10-12T23:26:02.202Z,11.90
2022-10-12T23:28:31.658Z,11.90
2022-10-12T23:30:59.733Z,11.80
2022-10-12T23:33:28.009Z,11.90
2022-10-12T23:35:57.798Z,11.80
2022-10-12T23:38:26.075Z,11.80
2022-10-12T23:40:53.920Z,11.80
2022-10-12T23:43:22.019Z,11.80
2022-10-12T23:45:51.925Z,11.80
2022-10-12T23:48:20.217Z,11.70
2022-10-12T23:50:48.529Z,11.70
2022-10-12T23:53:16.570Z,11.70
2022-10-12T23:55:44.638Z,11.70
2022-10-12T23:58:12.681Z,11.80
